Página principal
METAR-TAF:

METAR-TAF

Aeroportos :

Bella Coola, Colúmbia Britânica, Canadá

latitude: 52-23N, longitude: 126-35W, altura: 35 m

Observação actual do tempo

O boletim foi feito há 11 horas e 22 minutos, às 01:00 UTC
Vento 20 kt de oes-sudoeste com rajadas de 27 kt
Temperatura 12°C
Humidade 40%
Pressão 1015 hPa
Visibilidade: 24.1 km
Nuvens fragmentadasa uma altura de 11000 ft

METAR: CYBD 150100Z 25020G27KT 15SM BKN110 12/M01 A2998 RMK AC5 LAST STFD OBS/NXT 151300Z/ SLP154

Hora: 05:22 (12:22 UTC)


TAF: em falta

Observações e previsões do tempo de mais de 4000 aeroportos (mensagens METAR e TAF).

As estações disponíveis são os pontos amarelos e vermelhos sobre o mapa.

Mova o rato sobre o mapa para ver o nome da estação.

Depois clique no ponto para visualizar as observações e previsões meteorológicas.

Para alterar o mapa : clique nos botões verdes com uma cruz preta para aumentar o zoom; no botão verde com uma pitada de zoom; ou nas setas verdes para mapas adjacentes.


METAR-TAF: